Weather reports worldwide

Advertisment
Cazalla de la Sierra, Spain (8392): temperature & dewpoint: 16.09.2018 23:00:00 - 22.09.2018 23:00:00 (CEST)Cazalla de la Sierra, Spain (8392): wind speed & gusts: 16.09.2018 23:00:00 - 22.09.2018 23:00:00 (CEST)Cazalla de la Sierra, Spain (8392): wind direction: 16.09.2018 23:00:00 - 22.09.2018 23:00:00 (CEST)Cazalla de la Sierra, Spain (8392): reduced air pressure: 16.09.2018 23:00:00 - 22.09.2018 23:00:00 (CEST)Cazalla de la Sierra, Spain (8392): precipitation: 16.09.2018 23:00:00 - 22.09.2018 23:00:00 (CEST)
Date & Time tt [°C] td [°C] ff [km/h] ff [kn] fx [km/h] fx [kn] dd ppp [hPa] rr [mm]
22.09.2018 23:00:00 21,4 11,4 2 1 10 5 E 1020,9 0,0
22.09.2018 22:00:00 21,9 10,6 3 1 5 3 ESE 1020,5 0,0
22.09.2018 21:00:00 24,2 10,5 3 2 5 3 ESE 1019,4 0,0
22.09.2018 20:00:00 29,8 9,8 3 2 14 7 S 1018,0 -
22.09.2018 19:00:00 31,6 9,8 5 3 21 11 S 1017,2 0,0
22.09.2018 18:00:00 32,6 10,6 6 3 17 9 S 1017,1 0,0
22.09.2018 17:00:00 33,0 11,0 4 2 18 10 SSE 1017,1 0,0
22.09.2018 16:00:00 33,0 12,1 8 5 20 11 E 1017,4 0,0
22.09.2018 15:00:00 33,1 12,6 5 3 21 12 SE 1017,7 0,0
22.09.2018 14:00:00 32,7 12,8 5 3 17 9 S 1018,4 -
22.09.2018 13:00:00 32,0 13,8 4 2 14 8 E 1018,8 0,0
22.09.2018 12:00:00 30,3 12,6 4 2 9 5 E 1019,2 0,0
22.09.2018 11:00:00 27,8 13,8 4 2 7 4 E 1019,5 0,0
22.09.2018 10:00:00 23,3 14,6 4 2 6 3 E 1020,1 0,0
22.09.2018 09:00:00 18,8 13,0 3 1 6 3 SE 1020,7 0,0
22.09.2018 08:00:00 17,1 11,8 4 2 7 4 E 1020,6 -
22.09.2018 07:00:00 17,3 11,3 3 2 7 4 ESE 1020,2 0,0
22.09.2018 06:00:00 18,4 11,4 4 2 8 4 E 1019,6 0,0
22.09.2018 05:00:00 18,5 11,3 4 2 6 4 ESE 1019,2 0,0
22.09.2018 04:00:00 18,7 10,8 3 1 8 4 ESE 1019,2 0,0
22.09.2018 03:00:00 18,1 11,0 5 3 8 4 E 1019,6 0,0
22.09.2018 02:00:00 - - - - - - - - -
22.09.2018 01:00:00 - - - - - - - - -
22.09.2018 00:00:00 - - - - - - - - -
21.09.2018 23:00:00 19,5 11,0 3 2 5 3 ESE 1019,2 0,0
21.09.2018 22:00:00 20,4 10,5 3 2 4 2 ESE 1018,7 0,0
21.09.2018 21:00:00 22,5 9,7 3 2 6 3 E 1017,4 0,0
21.09.2018 20:00:00 28,0 9,8 4 2 10 5 S 1015,7 -
21.09.2018 19:00:00 30,5 10,4 5 3 17 9 S 1014,9 0,0
21.09.2018 18:00:00 30,4 10,9 6 3 18 10 SW 1014,9 0,0
21.09.2018 17:00:00 30,9 12,7 6 3 17 9 S 1014,8 0,0
21.09.2018 16:00:00 30,2 13,1 4 2 18 10 SE 1015,3 0,0
21.09.2018 15:00:00 30,0 14,1 1 1 16 9 N 1015,7 0,0
21.09.2018 14:00:00 30,2 13,9 3 2 15 8 SE 1016,3 -
21.09.2018 13:00:00 28,7 13,0 4 2 11 6 SSW 1017,0 0,0
21.09.2018 12:00:00 27,4 12,6 2 1 8 4 NE 1017,5 0,0
21.09.2018 11:00:00 24,6 11,2 2 1 8 4 E 1017,8 0,0
21.09.2018 10:00:00 21,6 13,3 2 1 8 4 ESE 1017,6 0,0
21.09.2018 09:00:00 17,4 15,1 4 2 8 4 E 1018,6 0,0
21.09.2018 08:00:00 16,5 14,5 4 2 7 4 ESE 1018,3 -
21.09.2018 07:00:00 16,2 14,4 1 0 5 3 E 1018,1 0,0
21.09.2018 06:00:00 16,7 14,7 3 2 7 4 ESE 1017,4 0,0
21.09.2018 05:00:00 17,4 15,7 3 1 5 3 ESE 1017,5 0,0
21.09.2018 04:00:00 17,5 15,9 1 1 4 2 E 1017,7 0,0
21.09.2018 03:00:00 18,0 16,1 1 1 3 2 ESE 1017,7 0,0
21.09.2018 02:00:00 18,3 15,7 2 1 3 2 E 1017,5 -
21.09.2018 01:00:00 18,8 14,7 1 1 4 2 E 1017,9 0,0
21.09.2018 00:00:00 20,0 14,3 2 1 4 2 ESE 1017,4 0,0
20.09.2018 23:00:00 21,0 14,1 0 0 4 2 E 1017,2 0,0
20.09.2018 22:00:00 23,8 15,1 3 1 10 5 WNW 1016,2 0,0
20.09.2018 21:00:00 24,6 15,8 3 1 8 4 S 1015,5 0,0
20.09.2018 20:00:00 27,6 15,6 1 1 7 4 SSE 1014,8 -
20.09.2018 19:00:00 28,0 15,3 0 0 16 9 SE 1014,9 0,0
20.09.2018 18:00:00 29,9 15,3 5 3 15 8 SW 1014,2 0,0
20.09.2018 17:00:00 30,4 15,7 5 3 19 10 SSE 1014,6 0,0
20.09.2018 16:00:00 29,7 17,2 5 3 19 10 SE 1015,3 0,0
20.09.2018 15:00:00 29,0 17,5 3 2 18 10 E 1016,2 0,0
20.09.2018 14:00:00 28,2 17,1 3 1 18 10 SSE 1016,9 -
20.09.2018 13:00:00 27,3 17,1 3 1 13 7 S 1017,7 0,0
20.09.2018 12:00:00 26,1 17,2 5 3 12 6 SSE 1018,0 0,0
20.09.2018 11:00:00 23,5 16,6 3 2 9 5 SSE 1018,5 0,0
20.09.2018 10:00:00 21,0 18,8 0 0 4 2 SSE 1018,8 0,0
20.09.2018 09:00:00 17,6 17,5 1 0 6 3 ESE 1019,2 0,0
20.09.2018 08:00:00 16,6 16,5 1 1 5 3 ESE 1019,2 -
20.09.2018 07:00:00 16,6 16,5 2 1 5 3 ESE 1018,8 0,0
20.09.2018 06:00:00 16,6 16,3 0 0 3 2 N 1019,0 0,0
20.09.2018 05:00:00 17,3 16,6 1 0 6 4 E 1019,0 0,0
20.09.2018 04:00:00 17,3 16,3 1 0 5 3 ESE 1019,0 0,0
20.09.2018 03:00:00 17,7 15,9 0 0 5 3 NNE 1019,3 0,0
20.09.2018 02:00:00 - - - - - - - - -
20.09.2018 01:00:00 18,9 16,0 2 1 6 4 SE 1019,0 0,0
20.09.2018 00:00:00 19,4 15,9 1 0 6 3 SE 1019,0 0,0
19.09.2018 23:00:00 19,7 16,1 3 1 5 3 E 1019,0 0,0
19.09.2018 22:00:00 20,7 15,7 2 1 6 3 ESE 1018,4 0,0
19.09.2018 21:00:00 21,9 15,0 4 2 6 3 E 1017,6 0,0
19.09.2018 20:00:00 25,1 15,4 1 1 4 2 ESE 1016,7 -
19.09.2018 19:00:00 26,0 15,3 1 1 5 3 E 1016,5 0,0
19.09.2018 18:00:00 28,5 13,6 2 1 13 7 SSW 1015,6 0,0
19.09.2018 17:00:00 29,8 16,6 4 2 23 12 SSE 1015,6 0,0
19.09.2018 16:00:00 27,1 15,4 5 3 12 7 SSW 1016,8 0,0
19.09.2018 15:00:00 30,0 12,4 5 3 19 11 WSW 1016,3 0,0
19.09.2018 14:00:00 30,1 13,4 3 2 13 7 SSE 1016,7 -
19.09.2018 13:00:00 28,7 13,8 6 4 12 7 ENE 1017,5 0,0
19.09.2018 12:00:00 27,2 13,9 5 3 13 7 E 1018,0 0,0
19.09.2018 11:00:00 25,3 13,2 5 3 8 4 E 1017,8 0,0
19.09.2018 10:00:00 21,2 16,0 0 0 4 2 ESE 1018,2 0,0
19.09.2018 09:00:00 16,7 15,5 0 0 4 2 WSW 1019,0 0,0
19.09.2018 08:00:00 15,9 14,6 2 1 6 4 ESE 1018,9 -
19.09.2018 07:00:00 16,0 15,1 3 1 5 3 E 1018,4 0,0
19.09.2018 06:00:00 16,3 15,3 2 1 4 2 ESE 1018,1 0,0
19.09.2018 05:00:00 16,8 16,0 1 1 6 3 SE 1017,9 0,0
19.09.2018 04:00:00 17,1 16,8 2 1 5 3 ESE 1018,0 0,0
19.09.2018 03:00:00 18,0 16,8 4 2 6 3 E 1017,9 0,0
19.09.2018 02:00:00 18,1 16,6 0 0 5 3 E 1017,8 -
19.09.2018 01:00:00 19,0 16,4 1 1 5 3 SE 1017,2 0,0
19.09.2018 00:00:00 19,6 16,5 1 0 7 4 SE 1017,3 0,0
18.09.2018 23:00:00 - - - - - - - - -
18.09.2018 22:00:00 - - - - - - - - -
18.09.2018 21:00:00 - - - - - - - - -
18.09.2018 20:00:00 25,8 15,5 4 2 14 7 W 1014,1 -
18.09.2018 19:00:00 26,6 15,6 4 2 13 7 S 1013,9 0,0
18.09.2018 18:00:00 24,5 16,5 5 3 18 10 WSW 1013,9 0,0
18.09.2018 17:00:00 27,6 13,9 6 3 21 12 SSW 1013,0 0,0
18.09.2018 16:00:00 28,9 15,8 5 3 16 9 S 1012,9 0,0
18.09.2018 15:00:00 27,8 15,8 1 1 18 10 S 1013,6 0,0
18.09.2018 14:00:00 28,4 16,3 3 1 14 8 SSE 1014,0 -
18.09.2018 13:00:00 26,7 16,0 4 2 15 8 SSW 1014,5 0,0
18.09.2018 12:00:00 25,4 16,6 6 3 15 8 SW 1015,0 0,0
18.09.2018 11:00:00 23,8 17,3 0 0 6 3 WSW 1015,0 0,0
18.09.2018 10:00:00 20,6 19,3 0 0 5 3 WNW 1015,3 0,0
18.09.2018 09:00:00 17,7 17,5 3 1 5 3 ESE 1015,5 0,0
18.09.2018 08:00:00 16,7 16,6 3 2 9 5 ESE 1015,4 -
18.09.2018 07:00:00 16,9 16,7 3 1 6 3 ESE 1014,9 0,0
18.09.2018 06:00:00 17,3 17,1 2 1 4 2 ESE 1014,3 0,0
18.09.2018 05:00:00 17,5 17,4 0 0 5 3 ESE 1014,5 0,0
18.09.2018 04:00:00 17,8 17,6 2 1 5 3 ESE 1014,5 0,0
18.09.2018 03:00:00 18,7 17,4 1 1 6 3 E 1014,5 0,0
18.09.2018 02:00:00 20,0 16,5 0 0 10 6 S 1014,4 -
18.09.2018 01:00:00 20,6 16,2 3 1 10 6 ESE 1014,6 0,0
18.09.2018 00:00:00 20,4 15,6 1 1 6 4 WNW 1014,5 0,0
17.09.2018 23:00:00 - - - - - - - - -
17.09.2018 22:00:00 - - - - - - - - -
17.09.2018 21:00:00 22,4 14,5 5 3 16 9 W 1013,2 0,0
17.09.2018 20:00:00 24,3 14,1 9 5 22 12 NNW 1012,5 -
17.09.2018 19:00:00 26,4 14,8 3 2 14 8 WNW 1011,5 0,0
17.09.2018 18:00:00 27,9 15,2 6 3 17 9 W 1011,1 0,0
17.09.2018 17:00:00 28,3 15,9 5 3 17 9 W 1011,8 0,0
17.09.2018 16:00:00 27,6 16,2 9 5 23 13 S 1012,5 0,0
17.09.2018 15:00:00 26,8 15,8 10 6 21 11 S 1013,8 0,0
17.09.2018 14:00:00 25,0 15,3 9 5 23 12 ESE 1014,8 -
17.09.2018 13:00:00 26,1 16,0 8 4 23 12 SE 1015,0 0,0
17.09.2018 12:00:00 24,9 16,9 6 4 19 10 ESE 1015,4 0,0
17.09.2018 11:00:00 23,0 17,5 4 2 16 9 SSE 1015,8 0,0
17.09.2018 10:00:00 22,1 18,3 2 1 9 5 SE 1015,8 0,0
17.09.2018 09:00:00 18,4 18,2 3 2 6 3 E 1016,6 0,0
17.09.2018 08:00:00 16,9 16,7 3 1 6 3 E 1016,9 -
17.09.2018 07:00:00 17,6 17,5 1 0 4 2 SE 1016,4 0,0
17.09.2018 06:00:00 18,8 18,5 2 1 8 5 E 1016,6 0,0
17.09.2018 05:00:00 17,6 17,5 0 0 4 2 N 1016,9 0,0
17.09.2018 04:00:00 18,5 17,7 0 0 8 4 SSE 1016,6 0,0
17.09.2018 03:00:00 19,4 18,8 4 2 8 4 E 1016,9 0,0
17.09.2018 02:00:00 - - - - - - - - -
17.09.2018 01:00:00 18,9 16,5 3 1 7 4 E 1017,4 0,0
17.09.2018 00:00:00 18,4 16,4 4 2 6 3 ESE 1017,5 0,0
16.09.2018 23:00:00 19,4 15,9 2 1 5 3 SE 1017,8 0,0

tt = temperature
td = dewpoint
ff = wind speed
fx = gusts
dd = wind direction
ppp = reduced air pressure
rr = precipitation

Next stations